createdAt,value
2022-10-24T00:01:53.150Z,17.26
2022-10-24T00:04:28.867Z,17.27
2022-10-24T00:06:59.364Z,17.29
2022-10-24T00:09:29.298Z,17.28
2022-10-24T00:12:00.666Z,17.29
2022-10-24T00:14:31.073Z,17.28
2022-10-24T00:17:02.512Z,17.27
2022-10-24T00:19:32.165Z,17.26
2022-10-24T00:22:00.866Z,17.29
2022-10-24T00:24:29.876Z,17.28
2022-10-24T00:26:58.433Z,17.29
2022-10-24T00:29:26.502Z,17.26
2022-10-24T00:31:54.823Z,17.22
2022-10-24T00:34:23.483Z,17.19
2022-10-24T00:36:54.843Z,17.16
2022-10-24T00:39:23.326Z,17.13
2022-10-24T00:41:54.776Z,17.08
2022-10-24T00:44:27.233Z,17.04
2022-10-24T00:46:56.735Z,17.02
2022-10-24T00:49:30.775Z,16.95
2022-10-24T00:52:06.073Z,16.89
2022-10-24T00:54:35.176Z,16.85
2022-10-24T00:57:10.109Z,16.83
2022-10-24T00:59:42.746Z,16.82
2022-10-24T01:04:57.105Z,16.79
2022-10-24T01:07:43.398Z,16.76
2022-10-24T01:10:31.051Z,16.73
2022-10-24T01:13:12.775Z,16.70
2022-10-24T01:16:01.097Z,16.67
2022-10-24T01:18:36.510Z,16.62
2022-10-24T01:21:15.833Z,16.60
2022-10-24T01:24:16.215Z,16.59
2022-10-24T01:27:06.368Z,16.56
2022-10-24T01:29:49.129Z,16.54
2022-10-24T01:32:23.294Z,16.53
2022-10-24T01:35:01.970Z,16.46
2022-10-24T01:37:38.161Z,16.46
2022-10-24T01:40:13.279Z,16.43
2022-10-24T01:42:43.898Z,16.40
2022-10-24T01:45:19.445Z,16.35
2022-10-24T01:47:52.941Z,16.31
2022-10-24T01:50:23.046Z,16.29
2022-10-24T01:52:53.895Z,16.28
2022-10-24T01:55:22.493Z,16.26
2022-10-24T01:57:51.174Z,16.25
2022-10-24T02:00:24.851Z,16.25
2022-10-24T02:02:57.411Z,16.25
2022-10-24T02:05:28.853Z,16.29
2022-10-24T02:08:01.691Z,16.29
2022-10-24T02:10:32.335Z,16.28
2022-10-24T02:13:05.671Z,16.30
2022-10-24T02:15:40.420Z,16.30
2022-10-24T02:18:10.433Z,16.30
2022-10-24T02:20:44.725Z,16.28
2022-10-24T02:23:21.476Z,16.28
2022-10-24T02:25:56.343Z,16.24
2022-10-24T02:28:28.611Z,16.25
2022-10-24T02:31:03.185Z,16.24
2022-10-24T02:33:33.693Z,16.24
2022-10-24T02:36:05.128Z,16.24
2022-10-24T02:38:37.577Z,16.25
2022-10-24T02:41:10.696Z,16.26
2022-10-24T02:43:42.212Z,16.29
2022-10-24T02:46:15.586Z,16.28
2022-10-24T02:48:48.629Z,16.31
2022-10-24T02:51:20.445Z,16.34
2022-10-24T02:53:49.495Z,16.36
2022-10-24T02:56:17.819Z,16.39
2022-10-24T02:58:47.220Z,16.40
2022-10-24T03:01:17.419Z,16.39
2022-10-24T03:03:50.342Z,16.42
2022-10-24T03:06:20.106Z,16.44
2022-10-24T03:08:48.926Z,16.46
2022-10-24T03:11:21.488Z,16.51
2022-10-24T03:13:50.051Z,16.54
2022-10-24T03:16:21.978Z,16.58
2022-10-24T03:18:51.763Z,16.61
2022-10-24T03:21:20.502Z,16.61
2022-10-24T03:23:52.012Z,16.63
2022-10-24T03:26:23.295Z,16.64
2022-10-24T03:28:51.949Z,16.63
2022-10-24T03:31:21.729Z,16.64
2022-10-24T03:33:50.137Z,16.63
2022-10-24T03:36:20.653Z,16.62
2022-10-24T03:38:50.183Z,16.59
2022-10-24T03:41:20.679Z,16.55
2022-10-24T03:43:50.514Z,16.54
2022-10-24T03:46:20.211Z,16.53
2022-10-24T03:48:51.265Z,16.53
2022-10-24T03:51:19.761Z,16.55
2022-10-24T03:53:48.653Z,16.57
2022-10-24T03:56:17.324Z,16.59
2022-10-24T03:58:45.626Z,16.61
2022-10-24T04:01:18.370Z,16.63
2022-10-24T04:03:48.022Z,16.67
2022-10-24T04:06:18.347Z,16.68
2022-10-24T04:08:47.812Z,16.71
2022-10-24T04:11:18.741Z,16.74
2022-10-24T04:13:47.358Z,16.74
2022-10-24T04:16:16.155Z,16.75
2022-10-24T04:18:45.275Z,16.77
2022-10-24T04:21:20.816Z,16.79
2022-10-24T04:23:51.236Z,16.79
2022-10-24T04:26:19.259Z,16.77
2022-10-24T04:28:47.809Z,16.78
2022-10-24T04:31:18.286Z,16.78
2022-10-24T04:33:48.951Z,16.80
2022-10-24T04:36:16.574Z,16.83
2022-10-24T04:38:44.378Z,16.83
2022-10-24T04:41:13.286Z,16.84
2022-10-24T04:43:41.355Z,16.83
2022-10-24T04:46:09.344Z,16.83
2022-10-24T04:48:37.044Z,16.84
2022-10-24T04:51:05.123Z,16.83
2022-10-24T04:53:32.692Z,16.84
2022-10-24T04:56:00.256Z,16.85
2022-10-24T04:58:29.088Z,16.84
2022-10-24T05:00:56.594Z,16.85
2022-10-24T05:03:24.134Z,16.85
2022-10-24T05:05:51.732Z,16.84
2022-10-24T05:08:19.842Z,16.84
2022-10-24T05:10:47.613Z,16.83
2022-10-24T05:13:15.365Z,16.83
2022-10-24T05:15:44.475Z,16.82
2022-10-24T05:18:12.701Z,16.79
2022-10-24T05:23:09.178Z,16.78
2022-10-24T05:25:36.885Z,16.78
2022-10-24T05:28:04.643Z,16.78
2022-10-24T05:30:32.486Z,16.76
2022-10-24T05:33:01.304Z,16.73
2022-10-24T05:35:28.778Z,16.72
2022-10-24T05:37:56.381Z,16.73
2022-10-24T05:40:24.362Z,16.74
2022-10-24T05:42:52.290Z,16.72
2022-10-24T05:45:20.998Z,16.71
2022-10-24T05:47:48.902Z,16.70
2022-10-24T05:50:18.139Z,16.69
2022-10-24T05:52:48.505Z,16.71
2022-10-24T05:55:27.810Z,16.70
2022-10-24T05:57:56.070Z,16.66
2022-10-24T07:41:14.359Z,16.82
2022-10-24T08:46:18.564Z,17.08
2022-10-24T10:13:07.582Z,16.99
2022-10-24T10:15:39.483Z,17.00
2022-10-24T10:21:12.015Z,17.06
2022-10-24T10:23:41.930Z,17.07
2022-10-24T10:26:27.175Z,17.07
2022-10-24T10:28:59.965Z,17.08
2022-10-24T10:48:26.223Z,17.00
2022-10-24T10:51:08.251Z,17.00
2022-10-24T10:53:51.432Z,17.03
2022-10-24T10:56:42.610Z,17.06
2022-10-24T11:03:22.324Z,17.06
2022-10-24T11:06:29.848Z,17.06
2022-10-24T11:09:38.220Z,17.08
2022-10-24T11:12:55.434Z,17.09
2022-10-24T11:19:41.213Z,17.11
2022-10-24T11:22:58.142Z,17.14
2022-10-24T11:29:53.337Z,17.26
2022-10-24T11:33:14.588Z,17.29
2022-10-24T11:45:43.234Z,17.74
2022-10-24T11:49:23.925Z,17.92
2022-10-24T11:59:45.136Z,18.32
2022-10-24T12:03:04.084Z,18.46
2022-10-24T12:10:18.223Z,18.62
2022-10-24T12:13:45.209Z,18.56
2022-10-24T12:20:13.120Z,18.46
2022-10-24T12:23:19.024Z,18.41
2022-10-24T12:26:45.206Z,18.38
2022-10-24T12:35:38.920Z,18.30
2022-10-24T12:38:27.020Z,18.31
2022-10-24T12:41:18.132Z,18.30
2022-10-24T12:43:51.362Z,18.28
2022-10-24T12:47:05.367Z,18.27
2022-10-24T12:55:39.786Z,18.29
2022-10-24T12:58:30.858Z,18.31
2022-10-24T13:01:06.558Z,18.31
2022-10-24T13:04:02.281Z,18.32
2022-10-24T13:06:49.403Z,18.29
2022-10-24T13:09:41.129Z,18.25
2022-10-24T13:12:55.255Z,18.24
2022-10-24T13:15:41.397Z,18.18
2022-10-24T13:18:27.674Z,18.14
2022-10-24T13:21:19.032Z,18.10
2022-10-24T13:23:54.618Z,18.10
2022-10-24T13:26:41.699Z,18.11
2022-10-24T13:29:46.339Z,18.16
2022-10-24T13:32:39.283Z,18.18
2022-10-24T13:35:22.791Z,18.21
2022-10-24T13:38:01.356Z,18.26
2022-10-24T13:40:35.631Z,18.33
2022-10-24T13:43:20.891Z,18.38
2022-10-24T13:46:13.202Z,18.43
2022-10-24T13:52:30.894Z,18.42
2022-10-24T13:55:33.768Z,18.37
2022-10-24T13:58:17.145Z,18.31
2022-10-24T14:01:25.660Z,18.27
2022-10-24T14:04:35.337Z,18.24
2022-10-24T14:07:13.386Z,18.21
2022-10-24T14:10:15.255Z,18.18
2022-10-24T14:12:58.497Z,18.14
2022-10-24T14:15:47.127Z,18.10
2022-10-24T14:18:34.564Z,18.07
2022-10-24T14:41:11.451Z,17.78
2022-10-24T14:43:57.934Z,17.78
2022-10-24T14:49:47.783Z,17.74
2022-10-24T14:52:32.834Z,17.73
2022-10-24T14:55:17.381Z,17.68
2022-10-24T14:57:57.874Z,17.68
2022-10-24T15:00:46.988Z,17.67
2022-10-24T15:06:30.114Z,17.62
2022-10-24T15:09:33.946Z,17.59
2022-10-24T15:12:06.071Z,17.57
2022-10-24T15:14:49.559Z,17.56
2022-10-24T15:17:33.210Z,17.54
2022-10-24T15:20:11.651Z,17.53
2022-10-24T15:23:04.594Z,17.53
2022-10-24T15:25:42.045Z,17.48
2022-10-24T15:28:39.686Z,17.49
2022-10-24T15:31:19.024Z,17.48
2022-10-24T15:34:04.603Z,17.45
2022-10-24T15:36:45.872Z,17.45
2022-10-24T15:39:38.964Z,17.42
2022-10-24T15:42:24.565Z,17.43
2022-10-24T15:44:57.684Z,17.39
2022-10-24T15:59:01.057Z,17.22
2022-10-24T16:01:42.357Z,17.17
2022-10-24T16:04:25.364Z,17.15
2022-10-24T16:06:59.350Z,17.11
2022-10-24T16:09:46.309Z,17.07
2022-10-24T16:12:33.459Z,17.03
2022-10-24T16:15:21.404Z,16.99
2022-10-24T16:18:04.620Z,16.96
2022-10-24T16:20:39.473Z,16.94
2022-10-24T16:23:19.280Z,16.91
2022-10-24T16:25:51.398Z,16.88
2022-10-24T16:28:23.627Z,16.89
2022-10-24T16:30:53.548Z,16.85
2022-10-24T16:33:22.490Z,16.82
2022-10-24T16:35:52.057Z,16.80
2022-10-24T16:38:19.905Z,16.78
2022-10-24T16:40:54.712Z,16.78
2022-10-24T16:43:24.586Z,16.75
2022-10-24T16:46:03.837Z,16.73
2022-10-24T16:48:31.817Z,16.68
2022-10-24T16:51:00.780Z,16.66
2022-10-24T16:53:28.481Z,16.65
2022-10-24T16:55:56.865Z,16.64
2022-10-24T16:58:25.529Z,16.61
2022-10-24T17:01:04.114Z,16.60
2022-10-24T17:03:32.228Z,16.58
2022-10-24T17:06:01.931Z,16.55
2022-10-24T17:08:30.286Z,16.53
2022-10-24T17:10:58.612Z,16.51
2022-10-24T17:13:26.262Z,16.46
2022-10-24T17:15:53.861Z,16.43
2022-10-24T17:18:23.374Z,16.41
2022-10-24T17:20:51.321Z,16.41
2022-10-24T17:23:21.744Z,16.38
2022-10-24T17:25:49.488Z,16.39
2022-10-24T17:28:17.472Z,16.39
2022-10-24T17:30:45.258Z,16.36
2022-10-24T17:33:13.031Z,16.34
2022-10-24T17:35:45.153Z,16.31
2022-10-24T17:38:25.498Z,16.28
2022-10-24T17:40:58.825Z,16.28
2022-10-24T17:43:28.646Z,16.29
2022-10-24T17:45:57.789Z,16.28
2022-10-24T17:48:25.745Z,16.32
2022-10-24T17:50:56.529Z,16.31
2022-10-24T17:53:24.041Z,16.31
2022-10-24T17:55:51.638Z,16.31
2022-10-24T17:58:21.520Z,16.35
2022-10-24T18:00:49.141Z,16.37
2022-10-24T18:03:16.669Z,16.38
2022-10-24T18:05:44.193Z,16.37
2022-10-24T18:08:16.260Z,16.37
2022-10-24T18:10:43.764Z,16.38
2022-10-24T18:13:11.460Z,16.40
2022-10-24T18:15:41.472Z,16.40
2022-10-24T18:18:09.215Z,16.39
2022-10-24T18:20:36.854Z,16.36
2022-10-24T18:23:04.783Z,16.35
2022-10-24T18:25:32.320Z,16.33
2022-10-24T18:28:00.057Z,16.33
2022-10-24T18:30:28.213Z,16.30
2022-10-24T18:32:57.153Z,16.28
2022-10-24T18:35:27.324Z,16.27
2022-10-24T18:37:54.853Z,16.25
2022-10-24T18:40:23.047Z,16.24
2022-10-24T18:42:54.442Z,16.21
2022-10-24T18:45:25.260Z,16.16
2022-10-24T18:47:53.858Z,16.10
2022-10-24T18:50:25.450Z,16.05
2022-10-24T18:52:56.944Z,16.04
2022-10-24T18:55:27.625Z,16.02
2022-10-24T18:57:55.453Z,16.02
2022-10-24T19:00:26.098Z,16.03
2022-10-24T19:03:02.702Z,16.04
2022-10-24T19:05:42.333Z,16.05
2022-10-24T19:08:13.956Z,16.08
2022-10-24T19:10:41.640Z,16.08
2022-10-24T19:13:09.614Z,16.11
2022-10-24T19:15:40.167Z,16.12
2022-10-24T19:18:11.285Z,16.11
2022-10-24T19:20:42.302Z,16.06
2022-10-24T19:23:12.342Z,16.00
2022-10-24T19:25:39.929Z,15.98
2022-10-24T19:28:07.802Z,15.96
2022-10-24T19:30:35.347Z,15.95
2022-10-24T19:33:02.875Z,15.92
2022-10-24T19:35:30.401Z,15.86
2022-10-24T19:37:59.263Z,15.83
2022-10-24T19:40:26.745Z,15.82
2022-10-24T19:42:54.255Z,15.83
2022-10-24T19:45:25.053Z,15.86
2022-10-24T19:47:55.037Z,15.87
2022-10-24T19:50:22.588Z,15.87
2022-10-24T19:52:50.128Z,15.86
2022-10-24T19:55:18.992Z,15.85
2022-10-24T19:57:46.696Z,15.83
2022-10-24T20:00:15.068Z,15.82
2022-10-24T20:02:42.721Z,15.83
2022-10-24T20:05:10.654Z,15.83
2022-10-24T20:07:38.196Z,15.81
2022-10-24T20:10:06.707Z,15.80
2022-10-24T20:12:35.555Z,15.78
2022-10-24T20:15:03.037Z,15.75
2022-10-24T20:17:30.527Z,15.71
2022-10-24T20:19:58.020Z,15.70
2022-10-24T20:22:25.699Z,15.72
2022-10-24T20:24:53.233Z,15.69
2022-10-24T20:27:23.761Z,15.60
2022-10-24T20:29:53.877Z,15.54
2022-10-24T20:32:21.424Z,15.50
2022-10-24T20:34:48.990Z,15.48
2022-10-24T20:37:16.519Z,15.42
2022-10-24T20:39:44.046Z,15.36
2022-10-24T20:42:11.554Z,15.29
2022-10-24T20:44:39.074Z,15.27
2022-10-24T20:47:07.924Z,15.29
2022-10-24T20:49:35.424Z,15.25
2022-10-24T20:52:02.953Z,15.23
2022-10-24T20:54:30.473Z,15.17
2022-10-24T20:56:58.030Z,15.13
2022-10-24T20:59:25.537Z,15.13
2022-10-24T21:01:53.155Z,15.12
2022-10-24T21:04:22.258Z,15.13
2022-10-24T21:06:49.888Z,15.14
2022-10-24T21:09:17.628Z,15.12
2022-10-24T21:11:45.196Z,15.14
2022-10-24T21:14:13.784Z,15.18
2022-10-24T21:16:41.284Z,15.23
2022-10-24T21:19:08.802Z,15.26
2022-10-24T21:21:37.704Z,15.28
2022-10-24T21:24:06.880Z,15.30
2022-10-24T21:26:35.046Z,15.30
2022-10-24T21:29:31.542Z,15.30
2022-10-24T21:31:50.251Z,15.25
2022-10-24T21:34:18.010Z,15.24
2022-10-24T21:36:46.985Z,15.22
2022-10-24T21:39:15.955Z,15.20
2022-10-24T21:41:43.957Z,15.17
2022-10-24T21:44:11.702Z,15.18
2022-10-24T21:46:39.243Z,15.17
2022-10-24T21:49:06.731Z,15.15
2022-10-24T21:51:37.019Z,15.14
2022-10-24T21:54:08.612Z,15.14
2022-10-24T21:56:37.739Z,15.13
2022-10-24T21:59:08.640Z,15.13
2022-10-24T22:01:38.229Z,15.11
2022-10-24T22:04:07.063Z,15.06
2022-10-24T22:06:36.574Z,15.01
2022-10-24T22:09:05.126Z,14.97
2022-10-24T22:11:35.784Z,14.94
2022-10-24T22:14:04.236Z,14.95
2022-10-24T22:16:32.951Z,14.92
2022-10-24T22:19:01.376Z,14.90
2022-10-24T22:21:31.823Z,14.89
2022-10-24T22:24:00.774Z,14.87
2022-10-24T22:26:28.857Z,14.80
2022-10-24T22:28:57.763Z,14.72
2022-10-24T22:31:27.643Z,14.60
2022-10-24T22:33:55.705Z,14.52
